Time;durP1;ratioP1;P1;durP2;ratioP2;P2;SDS_P1;SDS_P2;PMS_P1;PMS_P2;Temp;Humidity;BMP_temperature;BMP_pressure;BME280_temperature;BME280_humidity;BME280_pressure;Samples;Min_cycle;Max_cycle;Signal;HPM_P1;HPM_P2
2023/05/31 00:02:08;;;;;;;9.52;4.18;;;11.40;99.90;;;;;;4976576;28;20078;-33
2023/05/31 00:04:35;;;;;;;5.30;3.30;;;11.30;99.90;;;;;;4977311;28;20053;-41
2023/05/31 00:07:02;;;;;;;7.93;3.97;;;11.40;99.90;;;;;;4977895;28;20523;-42
2023/05/31 00:09:29;;;;;;;5.40;3.30;;;11.40;99.90;;;;;;4981700;28;20108;-40
2023/05/31 00:11:57;;;;;;;5.78;3.28;;;11.30;99.90;;;;;;4987583;28;20146;-40
2023/05/31 00:14:23;;;;;;;7.38;3.65;;;11.30;99.90;;;;;;4986478;28;20089;-39
2023/05/31 00:16:50;;;;;;;6.55;4.05;;;11.30;99.90;;;;;;4987001;28;20066;-40
2023/05/31 00:19:17;;;;;;;4.80;3.83;;;11.30;99.90;;;;;;4980013;28;20093;-42
2023/05/31 00:21:44;;;;;;;5.90;3.40;;;11.30;99.90;;;;;;4973910;28;20078;-40
2023/05/31 00:24:11;;;;;;;7.93;3.35;;;11.30;99.90;;;;;;4980825;28;20113;-41
2023/05/31 00:26:38;;;;;;;6.25;4.03;;;11.30;99.90;;;;;;4987643;28;20134;-39
2023/05/31 00:29:06;;;;;;;10.70;4.65;;;11.20;99.90;;;;;;4988757;28;20086;-40
2023/05/31 00:31:33;;;;;;;8.60;4.00;;;11.20;99.90;;;;;;4977150;28;20086;-42
2023/05/31 00:33:59;;;;;;;7.03;4.18;;;11.20;99.90;;;;;;4976984;28;20059;-42
2023/05/31 00:36:26;;;;;;;9.23;4.55;;;11.20;99.90;;;;;;4988038;28;20559;-37
2023/05/31 00:38:53;;;;;;;7.28;3.92;;;11.20;99.90;;;;;;4990781;28;20530;-37
2023/05/31 00:41:20;;;;;;;9.75;4.18;;;11.10;99.90;;;;;;4987013;28;20116;-41
2023/05/31 00:43:46;;;;;;;8.73;5.20;;;11.10;99.90;;;;;;4989267;28;20058;-41
2023/05/31 00:46:20;;;;;;;8.48;4.40;;;11.10;99.90;;;;;;4991292;28;20180;-41
2023/05/31 00:48:47;;;;;;;8.02;4.93;;;11.00;99.90;;;;;;5005328;28;20132;-38
2023/05/31 00:51:14;;;;;;;11.05;4.50;;;11.00;99.90;;;;;;4972935;28;20090;-42
2023/05/31 00:53:41;;;;;;;10.57;4.88;;;11.00;99.90;;;;;;4987648;28;20495;-41
2023/05/31 00:56:07;;;;;;;8.07;4.13;;;10.90;99.90;;;;;;4988780;28;20113;-38
2023/05/31 00:58:36;;;;;;;7.45;5.20;;;10.90;99.90;;;;;;4972736;28;20093;-42
2023/05/31 01:01:03;;;;;;;8.43;4.70;;;10.90;99.90;;;;;;4977499;28;20490;-43
2023/05/31 01:03:31;;;;;;;6.72;4.65;;;10.90;99.90;;;;;;4977252;28;20062;-41
2023/05/31 01:05:58;;;;;;;7.20;4.60;;;10.90;99.90;;;;;;4981091;28;20082;-40
2023/05/31 01:08:24;;;;;;;12.13;4.50;;;10.80;99.90;;;;;;4978232;28;20054;-38
2023/05/31 01:10:52;;;;;;;8.07;4.07;;;10.80;99.90;;;;;;4973155;28;20087;-33
2023/05/31 01:13:21;;;;;;;8.30;4.50;;;10.80;99.90;;;;;;4989649;28;20117;-40
2023/05/31 01:15:57;;;;;;;9.40;5.40;;;10.90;99.90;;;;;;4990964;28;20550;-41
2023/05/31 01:18:26;;;;;;;7.90;3.85;;;10.80;99.90;;;;;;4982495;28;20081;-42
2023/05/31 01:20:54;;;;;;;6.72;4.65;;;10.80;99.90;;;;;;4992100;28;20054;-41
2023/05/31 01:23:36;;;;;;;8.15;4.90;;;10.80;99.90;;;;;;4988835;28;20042;-39
2023/05/31 01:26:36;;;;;;;5.82;4.22;;;10.80;99.90;;;;;;4983419;28;20051;-39
2023/05/31 01:29:05;;;;;;;6.20;4.25;;;10.80;99.90;;;;;;4968253;28;20058;-40
2023/05/31 01:31:34;;;;;;;18.20;4.65;;;10.70;99.90;;;;;;4978698;28;20109;-38
2023/05/31 01:34:00;;;;;;;7.00;4.40;;;10.70;99.90;;;;;;4989357;28;20489;-40
2023/05/31 01:36:27;;;;;;;8.07;5.43;;;10.70;99.90;;;;;;4990431;28;20113;-42
2023/05/31 01:38:54;;;;;;;6.28;4.60;;;10.70;99.90;;;;;;4987149;28;20058;-40
2023/05/31 01:41:21;;;;;;;9.35;4.82;;;10.70;99.90;;;;;;4977540;28;20106;-42
2023/05/31 01:43:47;;;;;;;7.97;4.60;;;10.60;99.90;;;;;;4985925;28;20081;-41
2023/05/31 01:46:17;;;;;;;6.47;4.18;;;10.60;99.90;;;;;;4991063;28;20101;-40
2023/05/31 01:48:43;;;;;;;9.25;5.30;;;10.60;99.90;;;;;;4993895;28;20090;-38
2023/05/31 01:51:11;;;;;;;7.57;4.60;;;10.50;99.90;;;;;;4994326;28;20058;-42
2023/05/31 01:53:38;;;;;;;8.15;4.68;;;10.50;99.90;;;;;;4993557;28;20056;-36
2023/05/31 01:56:05;;;;;;;8.32;4.78;;;10.50;99.90;;;;;;4993334;28;20078;-38
2023/05/31 01:58:32;;;;;;;8.40;4.68;;;10.50;99.90;;;;;;4988214;28;20523;-41
2023/05/31 02:00:59;;;;;;;7.15;4.32;;;10.40;99.90;;;;;;4991625;28;20097;-40
2023/05/31 02:03:27;;;;;;;6.72;4.40;;;10.40;99.90;;;;;;4991832;28;20097;-41
2023/05/31 02:05:57;;;;;;;8.18;4.45;;;10.40;99.90;;;;;;4994008;28;20086;-38
2023/05/31 02:08:24;;;;;;;7.47;4.57;;;10.40;99.90;;;;;;4985953;28;20092;-38
2023/05/31 02:10:51;;;;;;;8.93;5.10;;;10.40;99.90;;;;;;4990618;28;20086;-40
2023/05/31 02:13:19;;;;;;;9.18;5.10;;;10.30;99.90;;;;;;4994429;28;20050;-41
2023/05/31 02:15:45;;;;;;;6.45;4.60;;;10.30;99.90;;;;;;4990993;28;20089;-42
2023/05/31 02:18:16;;;;;;;10.43;5.40;;;10.30;99.90;;;;;;4980864;28;20487;-35
2023/05/31 02:20:44;;;;;;;8.20;6.13;;;10.30;99.90;;;;;;4993451;28;20062;-40
2023/05/31 02:23:11;;;;;;;9.38;5.70;;;10.20;99.90;;;;;;4975371;28;20082;-41
2023/05/31 02:25:38;;;;;;;7.93;5.53;;;10.20;99.90;;;;;;4976147;28;20086;-40
2023/05/31 02:28:05;;;;;;;8.00;5.40;;;10.20;99.90;;;;;;4977737;28;20133;-38
2023/05/31 02:30:32;;;;;;;7.90;4.65;;;10.20;99.90;;;;;;4993449;28;20486;-42
2023/05/31 02:32:59;;;;;;;8.02;5.10;;;10.10;99.90;;;;;;4979266;28;20089;-41
2023/05/31 02:35:26;;;;;;;7.53;5.28;;;10.10;99.90;;;;;;4983945;28;20073;-40
2023/05/31 02:37:55;;;;;;;9.20;5.82;;;10.10;99.90;;;;;;4982489;28;20503;-42
2023/05/31 02:40:22;;;;;;;10.07;5.55;;;10.00;99.90;;;;;;4975642;28;20089;-39
2023/05/31 02:42:48;;;;;;;10.80;6.15;;;10.00;99.90;;;;;;4974709;28;20137;-41
2023/05/31 02:45:15;;;;;;;10.88;5.32;;;10.00;99.90;;;;;;4975100;28;20090;-40
2023/05/31 02:47:42;;;;;;;7.57;5.85;;;10.00;99.90;;;;;;4975974;28;20129;-42
2023/05/31 02:50:10;;;;;;;8.65;5.80;;;10.00;99.90;;;;;;4983463;28;20092;-41
2023/05/31 02:52:36;;;;;;;7.57;4.88;;;10.00;99.90;;;;;;4986001;28;20058;-40
2023/05/31 02:55:05;;;;;;;9.50;5.35;;;9.90;99.90;;;;;;4975496;28;20058;-42
2023/05/31 02:57:32;;;;;;;10.40;6.55;;;9.90;99.90;;;;;;4975179;28;20141;-38
2023/05/31 03:00:01;;;;;;;10.20;6.28;;;9.90;99.90;;;;;;4975601;28;20086;-41
2023/05/31 03:02:27;;;;;;;10.07;5.65;;;9.90;99.90;;;;;;4988207;28;20495;-37
2023/05/31 03:04:55;;;;;;;8.68;6.03;;;9.90;99.90;;;;;;4984558;28;20058;-39
2023/05/31 03:07:22;;;;;;;10.02;5.95;;;9.90;99.90;;;;;;4974367;28;20056;-42
2023/05/31 03:09:48;;;;;;;10.68;7.05;;;9.90;99.90;;;;;;4975573;28;20093;-38
2023/05/31 03:12:17;;;;;;;13.13;6.50;;;9.90;99.90;;;;;;4989962;28;20100;-39
2023/05/31 03:14:43;;;;;;;11.63;6.00;;;9.80;99.90;;;;;;4979273;28;20454;-40
2023/05/31 03:17:10;;;;;;;8.73;5.85;;;9.80;99.90;;;;;;4984433;28;20124;-42
2023/05/31 03:19:37;;;;;;;10.52;6.18;;;9.90;99.90;;;;;;4988371;28;20447;-41
2023/05/31 03:22:04;;;;;;;9.60;5.90;;;9.80;99.90;;;;;;4979753;28;20059;-39
2023/05/31 03:24:31;;;;;;;9.68;6.28;;;9.80;99.90;;;;;;4982891;28;20089;-41
2023/05/31 03:26:58;;;;;;;14.38;6.57;;;9.80;99.90;;;;;;4992024;28;20085;-42
2023/05/31 03:29:26;;;;;;;13.07;7.75;;;9.80;99.90;;;;;;4991093;28;20132;-42
2023/05/31 03:31:53;;;;;;;11.68;6.63;;;9.80;99.90;;;;;;4981277;28;20133;-35
2023/05/31 03:34:21;;;;;;;12.77;6.72;;;9.80;99.90;;;;;;4987082;28;20046;-39
2023/05/31 03:36:47;;;;;;;10.82;6.28;;;9.80;99.90;;;;;;4991470;28;20094;-40
2023/05/31 03:39:14;;;;;;;15.15;7.25;;;9.80;99.90;;;;;;4987487;28;20581;-39
2023/05/31 03:41:41;;;;;;;15.50;7.22;;;9.80;99.90;;;;;;4981451;28;20466;-38
2023/05/31 03:44:08;;;;;;;10.43;6.95;;;9.80;99.90;;;;;;4977393;28;20489;-40
2023/05/31 03:46:36;;;;;;;12.30;7.82;;;9.80;99.90;;;;;;4975083;28;20051;-42
2023/05/31 03:49:03;;;;;;;13.05;7.88;;;9.80;99.90;;;;;;4985132;28;20089;-41
2023/05/31 03:51:30;;;;;;;12.20;6.82;;;9.70;99.90;;;;;;4983280;28;20058;-38
2023/05/31 03:53:56;;;;;;;11.50;6.70;;;9.80;99.90;;;;;;4973135;28;20086;-37
2023/05/31 03:56:23;;;;;;;14.80;7.00;;;9.80;99.90;;;;;;4976173;28;20097;-40
2023/05/31 03:58:50;;;;;;;13.55;7.03;;;9.80;99.90;;;;;;4983024;28;20085;-38
2023/05/31 04:01:17;;;;;;;11.85;7.03;;;9.80;99.90;;;;;;4984673;28;20056;-39
2023/05/31 04:03:45;;;;;;;11.07;6.47;;;9.70;99.90;;;;;;4987704;28;20086;-40
2023/05/31 04:06:12;;;;;;;11.32;6.70;;;9.80;99.90;;;;;;4984554;28;20050;-40
2023/05/31 04:08:39;;;;;;;10.75;6.15;;;9.80;99.90;;;;;;4990145;28;20137;-40
2023/05/31 04:11:05;;;;;;;15.50;6.72;;;9.80;99.90;;;;;;4990033;28;20406;-41
2023/05/31 04:13:32;;;;;;;11.80;6.85;;;9.80;99.90;;;;;;4978310;28;20956;-41
2023/05/31 04:15:59;;;;;;;16.70;7.07;;;9.80;99.90;;;;;;4985292;28;20078;-41
2023/05/31 04:18:26;;;;;;;12.95;6.50;;;9.80;99.90;;;;;;4974308;28;20129;-41
2023/05/31 04:20:54;;;;;;;13.93;7.97;;;9.80;99.90;;;;;;4973927;28;20050;-36
2023/05/31 04:23:21;;;;;;;16.05;8.70;;;9.90;99.90;;;;;;4988611;28;20058;-40
2023/05/31 04:25:48;;;;;;;20.45;8.55;;;9.90;99.90;;;;;;4982036;28;20051;-39
2023/05/31 04:28:18;;;;;;;18.15;8.32;;;9.90;99.90;;;;;;4977850;28;20403;-40
2023/05/31 04:30:45;;;;;;;13.88;7.30;;;9.90;99.90;;;;;;4984473;28;20494;-41
2023/05/31 04:33:12;;;;;;;21.08;9.23;;;9.90;99.90;;;;;;4990440;28;20109;-38
2023/05/31 04:35:40;;;;;;;21.15;10.00;;;10.00;99.90;;;;;;4992568;28;20052;-39
2023/05/31 04:38:09;;;;;;;19.77;9.95;;;10.00;99.90;;;;;;4990006;28;20058;-42
2023/05/31 04:40:35;;;;;;;20.08;9.43;;;10.10;99.90;;;;;;4986081;28;20062;-38
2023/05/31 04:43:02;;;;;;;18.08;9.48;;;10.10;99.90;;;;;;4983399;28;20213;-39
2023/05/31 04:45:29;;;;;;;23.67;10.52;;;10.10;99.90;;;;;;4986345;28;20054;-38
2023/05/31 04:47:57;;;;;;;23.00;11.35;;;10.10;99.90;;;;;;4986511;28;20058;-42
2023/05/31 04:50:24;;;;;;;23.00;10.10;;;10.20;99.90;;;;;;4981572;28;20059;-40
2023/05/31 04:52:51;;;;;;;26.95;10.38;;;10.20;99.90;;;;;;4981044;28;20058;-37
2023/05/31 04:55:19;;;;;;;25.23;11.15;;;10.30;99.90;;;;;;4983603;28;20038;-41
2023/05/31 04:57:46;;;;;;;18.38;8.93;;;10.30;99.90;;;;;;4986281;28;20054;-42
2023/05/31 05:00:15;;;;;;;25.80;11.52;;;10.40;99.90;;;;;;4979026;28;20090;-42
2023/05/31 05:02:43;;;;;;;19.15;10.13;;;10.40;99.90;;;;;;4981439;28;20562;-41
2023/05/31 05:05:09;;;;;;;21.85;11.25;;;10.50;99.90;;;;;;4975653;28;20058;-39
2023/05/31 05:07:36;;;;;;;18.80;10.20;;;10.60;99.90;;;;;;4983304;28;20120;-41
2023/05/31 05:10:03;;;;;;;26.20;10.75;;;10.60;99.90;;;;;;4987241;28;20117;-41
2023/05/31 05:12:31;;;;;;;23.40;10.88;;;10.70;99.90;;;;;;4987391;28;20462;-42
2023/05/31 05:14:58;;;;;;;24.02;10.80;;;10.80;99.90;;;;;;4981590;28;20077;-39
2023/05/31 05:17:25;;;;;;;23.70;11.43;;;10.90;99.90;;;;;;4983761;28;20477;-41
2023/05/31 05:19:52;;;;;;;22.38;10.93;;;11.00;99.90;;;;;;4982893;28;20443;-42
2023/05/31 05:22:18;;;;;;;25.60;10.25;;;11.10;99.90;;;;;;4989804;28;20449;-41
2023/05/31 05:24:45;;;;;;;23.80;10.95;;;11.20;99.90;;;;;;4994963;28;20054;-39
2023/05/31 05:27:12;;;;;;;19.88;10.35;;;11.30;99.90;;;;;;4995041;28;20132;-42
2023/05/31 05:29:40;;;;;;;20.77;9.93;;;11.40;99.90;;;;;;4994882;28;20093;-36
2023/05/31 05:32:08;;;;;;;20.23;9.95;;;11.50;99.90;;;;;;4974704;28;20066;-39
2023/05/31 05:34:35;;;;;;;17.48;9.63;;;11.70;99.90;;;;;;4987332;28;20054;-42
2023/05/31 05:37:02;;;;;;;15.82;8.45;;;11.80;99.90;;;;;;4994170;28;20050;-43
2023/05/31 05:39:30;;;;;;;19.00;10.07;;;11.90;99.90;;;;;;4994775;28;20482;-43
2023/05/31 05:41:56;;;;;;;21.42;9.68;;;12.10;99.90;;;;;;4995781;28;20054;-42
2023/05/31 05:44:23;;;;;;;15.85;8.25;;;12.20;99.90;;;;;;4995904;28;20059;-42
2023/05/31 05:46:52;;;;;;;18.40;9.00;;;12.30;99.90;;;;;;4993855;28;20086;-35
2023/05/31 05:49:18;;;;;;;19.77;9.18;;;12.40;99.90;;;;;;4994532;28;20050;-40
2023/05/31 05:51:45;;;;;;;19.27;9.32;;;12.60;99.90;;;;;;4995636;28;20092;-42
2023/05/31 05:54:12;;;;;;;19.85;9.02;;;12.70;99.90;;;;;;4995368;28;20093;-42
2023/05/31 05:56:39;;;;;;;20.73;9.18;;;12.80;99.90;;;;;;4994466;28;20137;-40
2023/05/31 05:59:05;;;;;;;16.58;8.75;;;12.90;99.90;;;;;;4994487;28;20137;-43
2023/05/31 06:01:32;;;;;;;18.23;8.93;;;13.10;99.90;;;;;;4994288;28;20042;-41
2023/05/31 06:04:00;;;;;;;17.85;8.98;;;13.20;99.90;;;;;;4995546;28;20086;-42
2023/05/31 06:06:27;;;;;;;21.45;9.98;;;13.30;99.90;;;;;;4995589;28;20128;-42
2023/05/31 06:08:54;;;;;;;19.58;8.90;;;13.40;99.90;;;;;;4994167;28;20517;-35
2023/05/31 06:11:22;;;;;;;22.92;9.50;;;13.60;99.90;;;;;;4995066;28;20545;-42
2023/05/31 06:13:49;;;;;;;26.60;10.20;;;13.70;99.90;;;;;;4994590;28;20093;-43
2023/05/31 06:16:16;;;;;;;15.60;7.82;;;13.80;99.90;;;;;;4994869;28;20082;-42
2023/05/31 06:18:42;;;;;;;16.45;8.55;;;14.00;99.90;;;;;;4995227;28;20054;-41
2023/05/31 06:21:11;;;;;;;16.25;8.35;;;14.10;99.90;;;;;;4993947;28;20061;-43
2023/05/31 06:23:37;;;;;;;19.75;9.05;;;14.20;99.90;;;;;;4994874;28;20577;-41
2023/05/31 06:26:04;;;;;;;13.90;7.70;;;14.30;99.90;;;;;;4992103;28;20050;-44
2023/05/31 06:28:32;;;;;;;15.05;8.07;;;14.40;99.90;;;;;;4995149;28;20077;-43
2023/05/31 06:31:00;;;;;;;17.50;8.50;;;14.60;99.90;;;;;;4994045;28;20066;-43
2023/05/31 06:33:27;;;;;;;13.90;7.15;;;14.70;99.90;;;;;;4994924;28;20078;-42
2023/05/31 06:35:53;;;;;;;16.48;7.57;;;14.90;99.90;;;;;;4993909;28;20090;-44
2023/05/31 06:38:22;;;;;;;16.33;7.68;;;15.00;99.90;;;;;;4993904;28;20525;-44
2023/05/31 06:40:48;;;;;;;13.75;7.28;;;15.10;99.90;;;;;;4995241;28;20160;-44
2023/05/31 06:43:16;;;;;;;17.77;7.00;;;15.20;99.90;;;;;;4994782;28;20121;-43
2023/05/31 06:45:43;;;;;;;14.13;6.40;;;15.40;99.90;;;;;;4994601;28;20046;-43
2023/05/31 06:48:10;;;;;;;15.02;7.47;;;15.50;99.90;;;;;;4994697;28;20104;-43
2023/05/31 06:50:36;;;;;;;15.68;6.88;;;15.60;99.90;;;;;;4994847;28;20117;-43
2023/05/31 06:53:03;;;;;;;11.32;6.63;;;15.80;99.90;;;;;;4993944;28;20050;-44
2023/05/31 06:55:31;;;;;;;16.85;7.95;;;15.90;99.90;;;;;;4995006;28;20050;-43
2023/05/31 06:57:58;;;;;;;14.32;7.45;;;16.00;99.90;;;;;;4995004;28;20054;-44
2023/05/31 07:00:25;;;;;;;17.50;7.90;;;16.10;99.90;;;;;;4993342;28;20062;-44
2023/05/31 07:02:52;;;;;;;13.80;7.13;;;16.20;99.90;;;;;;4994635;28;20136;-44
2023/05/31 07:05:19;;;;;;;13.90;7.30;;;16.30;99.90;;;;;;4994304;28;20118;-42
2023/05/31 07:07:45;;;;;;;13.02;7.47;;;16.40;99.90;;;;;;4992753;28;20054;-44
2023/05/31 07:10:12;;;;;;;16.70;6.75;;;16.60;99.90;;;;;;4993544;28;20047;-44
2023/05/31 07:12:40;;;;;;;11.60;6.70;;;16.70;99.90;;;;;;4993475;28;20142;-43
2023/05/31 07:15:09;;;;;;;12.98;7.55;;;16.90;99.90;;;;;;4992997;28;20085;-44
2023/05/31 07:17:36;;;;;;;13.80;6.47;;;17.10;99.90;;;;;;4993250;28;20076;-44
2023/05/31 07:20:05;;;;;;;14.93;7.35;;;17.30;99.90;;;;;;4992464;28;20104;-43
2023/05/31 07:22:32;;;;;;;14.10;6.95;;;17.40;99.90;;;;;;4992526;28;20072;-42
2023/05/31 07:24:58;;;;;;;11.20;6.88;;;17.60;99.90;;;;;;4993231;28;20141;-43
2023/05/31 07:27:25;;;;;;;14.82;7.22;;;17.60;99.90;;;;;;4994153;28;20085;-44
2023/05/31 07:29:53;;;;;;;14.75;7.80;;;17.80;99.90;;;;;;4993986;28;20089;-44
2023/05/31 07:32:20;;;;;;;11.15;7.00;;;17.90;99.90;;;;;;4992698;28;20058;-44
2023/05/31 07:34:47;;;;;;;11.45;6.28;;;17.90;99.90;;;;;;4993278;28;20082;-44
2023/05/31 07:37:14;;;;;;;18.60;7.60;;;18.10;99.90;;;;;;4992336;28;20050;-44
2023/05/31 07:39:40;;;;;;;14.07;7.35;;;18.30;99.90;;;;;;4994061;28;20086;-41
2023/05/31 07:42:08;;;;;;;14.32;6.68;;;18.40;99.90;;;;;;4992535;28;20101;-42
2023/05/31 07:44:34;;;;;;;13.73;6.97;;;18.50;99.90;;;;;;4993098;28;20088;-44
2023/05/31 07:47:03;;;;;;;12.85;7.10;;;18.70;99.90;;;;;;4991774;28;20130;-44
2023/05/31 07:49:29;;;;;;;15.55;7.32;;;18.80;99.90;;;;;;4991825;28;20054;-43
2023/05/31 07:51:56;;;;;;;15.07;7.07;;;18.90;99.90;;;;;;4992242;28;20093;-44
2023/05/31 07:54:23;;;;;;;11.13;5.90;;;19.00;99.90;;;;;;4992534;28;20133;-44
2023/05/31 07:56:50;;;;;;;12.23;5.68;;;19.10;99.90;;;;;;4993812;28;20437;-43
2023/05/31 07:59:17;;;;;;;16.25;6.82;;;19.30;99.90;;;;;;4991415;28;20057;-41
2023/05/31 08:01:46;;;;;;;15.35;6.15;;;19.40;99.90;;;;;;4993214;28;20113;-44
2023/05/31 08:04:15;;;;;;;12.43;5.97;;;19.50;99.90;;;;;;4992282;28;20061;-44
2023/05/31 08:06:42;;;;;;;11.82;5.38;;;19.70;99.90;;;;;;4992010;28;20057;-43
2023/05/31 08:09:09;;;;;;;13.07;6.10;;;20.00;99.90;;;;;;4993386;28;20046;-44
2023/05/31 08:11:36;;;;;;;15.70;5.97;;;20.10;99.90;;;;;;4991951;28;20145;-45
2023/05/31 08:14:03;;;;;;;12.55;5.28;;;20.30;99.90;;;;;;4991200;28;20496;-43
2023/05/31 08:16:33;;;;;;;11.93;5.47;;;20.50;99.90;;;;;;4991672;28;20133;-42
2023/05/31 08:19:00;;;;;;;12.27;5.25;;;20.70;99.90;;;;;;4992825;28;20054;-42
2023/05/31 08:21:29;;;;;;;10.93;5.25;;;20.80;99.90;;;;;;4991628;28;20446;-44
2023/05/31 08:23:55;;;;;;;12.10;5.90;;;20.90;99.90;;;;;;4992118;28;20050;-42
2023/05/31 08:26:22;;;;;;;15.77;5.63;;;20.90;99.90;;;;;;4990094;28;20528;-44
2023/05/31 08:28:49;;;;;;;12.43;4.78;;;21.00;99.90;;;;;;4991867;28;20478;-44
2023/05/31 08:31:16;;;;;;;12.18;5.43;;;21.20;99.90;;;;;;4991734;28;20104;-43
2023/05/31 08:33:53;;;;;;;13.90;4.95;;;21.30;99.90;;;;;;4991815;28;20082;-45
2023/05/31 08:36:20;;;;;;;11.27;4.93;;;21.40;99.90;;;;;;4991941;28;20413;-44
2023/05/31 08:38:48;;;;;;;14.48;5.05;;;21.70;99.90;;;;;;4991223;28;20580;-44
2023/05/31 08:41:15;;;;;;;12.82;5.28;;;21.90;99.50;;;;;;4992711;28;20101;-43
2023/05/31 08:43:42;;;;;;;10.82;4.78;;;21.90;98.20;;;;;;4991399;28;20413;-44
2023/05/31 08:46:09;;;;;;;10.25;4.55;;;22.00;98.20;;;;;;4991889;28;20446;-43
2023/05/31 08:48:38;;;;;;;13.30;4.75;;;22.10;98.00;;;;;;4992140;28;20406;-44
2023/05/31 08:51:06;;;;;;;8.85;5.20;;;22.10;97.60;;;;;;4992276;28;20085;-43
2023/05/31 08:53:32;;;;;;;13.18;5.15;;;22.40;97.10;;;;;;4991981;28;20112;-44
2023/05/31 08:56:02;;;;;;;7.63;4.13;;;22.40;96.30;;;;;;4992405;28;20086;-44
2023/05/31 08:58:29;;;;;;;10.45;5.10;;;22.40;96.10;;;;;;4992617;28;20478;-42
2023/05/31 09:00:56;;;;;;;11.48;5.32;;;22.40;96.30;;;;;;4992548;28;20109;-43
2023/05/31 09:03:23;;;;;;;11.85;4.93;;;22.50;96.30;;;;;;4991273;28;20089;-44
2023/05/31 09:05:51;;;;;;;14.43;5.18;;;22.70;96.10;;;;;;4991650;28;20092;-44
2023/05/31 09:08:18;;;;;;;8.48;4.53;;;22.90;96.20;;;;;;4991543;28;20050;-44
2023/05/31 09:10:45;;;;;;;10.73;4.97;;;23.00;95.80;;;;;;4991172;28;20058;-44
2023/05/31 09:13:13;;;;;;;8.38;4.47;;;23.20;95.40;;;;;;4991272;28;20093;-41
2023/05/31 09:15:40;;;;;;;13.52;5.38;;;23.30;95.40;;;;;;4991255;28;20136;-44
2023/05/31 09:18:15;;;;;;;9.20;4.40;;;23.40;94.80;;;;;;4991390;28;20054;-44
2023/05/31 09:20:42;;;;;;;11.68;4.32;;;23.50;94.90;;;;;;4990618;28;20057;-45
2023/05/31 09:23:09;;;;;;;10.30;4.18;;;23.50;94.80;;;;;;4992567;28;20125;-44
2023/05/31 09:25:46;;;;;;;11.50;4.45;;;23.70;94.50;;;;;;4991254;28;20449;-44
2023/05/31 09:28:14;;;;;;;12.23;3.92;;;23.80;94.00;;;;;;4991603;28;20137;-45
2023/05/31 09:30:41;;;;;;;11.20;3.78;;;24.00;93.90;;;;;;4991323;28;20113;-44
2023/05/31 09:33:08;;;;;;;11.40;4.10;;;24.10;92.90;;;;;;4990833;28;20058;-41
2023/05/31 09:35:35;;;;;;;8.98;3.65;;;24.10;92.10;;;;;;4992758;28;20453;-44
2023/05/31 09:38:04;;;;;;;8.95;3.95;;;24.10;91.60;;;;;;4991222;28;20085;-44
2023/05/31 09:40:32;;;;;;;9.95;3.80;;;24.20;91.40;;;;;;4990983;28;20089;-45
2023/05/31 09:42:59;;;;;;;11.35;4.03;;;24.30;91.50;;;;;;4990882;28;20510;-44
2023/05/31 09:45:28;;;;;;;9.45;4.03;;;24.40;91.20;;;;;;4991346;28;20406;-44
2023/05/31 09:47:55;;;;;;;8.77;4.00;;;24.50;90.80;;;;;;4989637;28;20054;-42
2023/05/31 09:50:22;;;;;;;9.15;3.75;;;24.50;90.80;;;;;;4991498;28;20494;-43
2023/05/31 09:52:51;;;;;;;10.98;4.05;;;24.50;90.40;;;;;;4992228;28;20050;-45
2023/05/31 09:55:18;;;;;;;9.30;3.55;;;24.60;89.90;;;;;;4990958;28;20062;-44
2023/05/31 09:57:45;;;;;;;7.28;4.15;;;24.60;88.30;;;;;;4991933;28;20093;-45
2023/05/31 10:00:15;;;;;;;8.50;3.55;;;24.70;87.10;;;;;;4991404;28;20043;-44
2023/05/31 10:02:43;;;;;;;9.32;4.10;;;24.70;88.30;;;;;;4994646;28;20520;-44
2023/05/31 10:05:11;;;;;;;11.90;4.13;;;24.90;89.50;;;;;;4995537;28;20475;-43
2023/05/31 10:07:38;;;;;;;13.35;3.63;;;25.20;89.20;;;;;;4995695;28;20050;-45
2023/05/31 10:10:06;;;;;;;11.80;4.10;;;25.40;88.60;;;;;;4994338;28;20061;-43
2023/05/31 10:12:34;;;;;;;9.00;3.42;;;25.50;87.80;;;;;;4995234;28;20050;-44
2023/05/31 10:15:05;;;;;;;8.55;4.03;;;25.60;87.40;;;;;;4994918;28;20121;-44
2023/05/31 10:17:33;;;;;;;;;;;25.70;86.40;;;;;;4996070;28;20058;-42
2023/05/31 10:20:04;;;;;;;8.32;3.60;;;25.60;86.80;;;;;;4994527;28;20365;-45
2023/05/31 10:22:31;;;;;;;8.65;4.18;;;25.70;87.10;;;;;;4995209;28;20062;-45
2023/05/31 10:25:01;;;;;;;9.02;3.97;;;25.80;86.30;;;;;;4995334;28;20062;-45
2023/05/31 10:27:31;;;;;;;10.23;4.38;;;25.90;85.60;;;;;;4995039;28;20082;-44
2023/05/31 10:30:04;;;;;;;11.50;4.20;;;26.00;85.00;;;;;;4993996;28;20054;-44
2023/05/31 10:32:30;;;;;;;13.20;4.20;;;26.10;85.00;;;;;;4994987;28;20054;-44
2023/05/31 10:34:57;;;;;;;8.93;3.60;;;26.20;83.60;;;;;;4994167;28;20912;-44
2023/05/31 10:37:25;;;;;;;8.40;3.53;;;26.30;82.50;;;;;;4994660;28;20047;-45
2023/05/31 10:39:55;;;;;;;8.38;2.83;;;26.40;83.70;;;;;;4993901;28;20078;-44
2023/05/31 10:42:26;;;;;;;9.02;3.67;;;26.60;84.00;;;;;;4993758;28;20056;-44
2023/05/31 10:44:56;;;;;;;10.88;3.88;;;26.70;82.00;;;;;;4993003;28;20105;-43
2023/05/31 10:47:27;;;;;;;7.72;3.45;;;26.80;81.10;;;;;;4994842;28;20109;-43
2023/05/31 10:49:54;;;;;;;9.15;3.28;;;26.80;80.40;;;;;;4993841;28;20054;-44
2023/05/31 10:52:21;;;;;;;7.50;3.40;;;26.70;80.80;;;;;;4992815;28;20055;-43
2023/05/31 10:54:49;;;;;;;8.88;3.60;;;26.50;81.80;;;;;;4994677;28;20089;-43
2023/05/31 10:57:16;;;;;;;8.45;3.65;;;26.60;81.30;;;;;;4993822;28;20141;-43
2023/05/31 10:59:43;;;;;;;7.88;3.33;;;26.70;81.00;;;;;;4993086;28;20051;-42
2023/05/31 11:02:10;;;;;;;6.25;3.20;;;26.80;80.10;;;;;;4994594;28;20101;-45
2023/05/31 11:04:37;;;;;;;8.05;3.40;;;26.80;80.40;;;;;;4993111;28;20058;-44
2023/05/31 11:07:22;;;;;;;11.25;3.50;;;26.90;80.60;;;;;;4994323;28;20097;-44
2023/05/31 11:09:59;;;;;;;13.55;4.15;;;27.10;80.80;;;;;;4993479;28;20710;-45
2023/05/31 11:12:33;;;;;;;10.02;3.78;;;27.30;78.20;;;;;;4980813;28;20487;-46
2023/05/31 11:15:00;;;;;;;9.48;4.20;;;27.10;78.00;;;;;;4974737;28;20055;-45
2023/05/31 11:17:27;;;;;;;7.32;3.63;;;27.00;76.80;;;;;;4979965;28;20046;-45
2023/05/31 11:19:55;;;;;;;12.20;4.13;;;26.90;77.30;;;;;;4994028;28;20089;-44
2023/05/31 11:22:27;;;;;;;10.32;4.75;;;27.00;76.70;;;;;;4993314;28;20050;-43
2023/05/31 11:24:54;;;;;;;11.95;3.75;;;27.10;75.80;;;;;;4993433;28;20038;-44
2023/05/31 11:27:23;;;;;;;13.57;5.45;;;27.10;76.30;;;;;;4992896;28;20450;-43
2023/05/31 11:29:59;;;;;;;9.13;3.83;;;27.10;76.30;;;;;;4987786;28;20082;-43
2023/05/31 11:32:54;;;;;;;12.15;4.70;;;27.10;78.00;;;;;;4976606;28;20054;-45
2023/05/31 11:35:21;;;;;;;11.27;4.68;;;27.10;77.10;;;;;;4991065;28;20050;-44
2023/05/31 11:37:48;;;;;;;8.48;4.22;;;27.00;76.50;;;;;;4992853;28;20054;-44
2023/05/31 11:40:16;;;;;;;11.55;3.78;;;27.10;77.40;;;;;;4992696;28;20089;-42
2023/05/31 11:42:47;;;;;;;13.93;4.38;;;27.30;77.80;;;;;;4993556;28;20140;-43
2023/05/31 11:45:15;;;;;;;15.43;4.80;;;27.40;78.30;;;;;;4992711;28;20050;-45
2023/05/31 11:48:00;;;;;;;11.98;4.50;;;27.50;77.40;;;;;;4985156;28;20046;-45
2023/05/31 11:50:28;;;;;;;14.60;5.07;;;27.50;77.90;;;;;;4976518;28;20129;-45
2023/05/31 11:52:57;;;;;;;12.40;5.40;;;27.50;76.50;;;;;;4992326;28;20101;-42
2023/05/31 11:55:24;;;;;;;13.05;4.55;;;27.40;76.60;;;;;;4992446;28;20090;-44
2023/05/31 11:57:53;;;;;;;12.98;5.30;;;27.60;77.40;;;;;;4993356;28;20051;-43
2023/05/31 12:00:21;;;;;;;12.82;5.05;;;27.60;74.60;;;;;;4992002;28;20050;-44
2023/05/31 12:02:52;;;;;;;10.98;4.90;;;27.60;75.90;;;;;;4987226;28;20455;-44
2023/05/31 12:05:19;;;;;;;10.23;4.50;;;27.60;75.10;;;;;;4976552;28;20058;-43
2023/05/31 12:07:46;;;;;;;9.48;4.10;;;27.70;75.70;;;;;;4993439;28;20165;-44
2023/05/31 12:10:13;;;;;;;12.50;5.10;;;27.70;76.40;;;;;;4993296;28;20054;-44
2023/05/31 12:12:40;;;;;;;10.27;4.90;;;27.60;74.10;;;;;;4982396;28;20106;-43
2023/05/31 12:15:11;;;;;;;12.40;5.90;;;27.50;74.50;;;;;;4988174;28;20097;-42
2023/05/31 12:17:39;;;;;;;10.82;4.72;;;27.50;74.60;;;;;;4973992;28;20058;-44
2023/05/31 12:20:07;;;;;;;11.20;5.10;;;27.60;76.00;;;;;;4980158;28;20065;-44
2023/05/31 12:22:34;;;;;;;11.77;4.85;;;27.80;75.20;;;;;;4990282;28;20054;-44
2023/05/31 12:25:01;;;;;;;12.05;5.07;;;27.90;74.90;;;;;;4992345;28;20058;-45
2023/05/31 12:27:29;;;;;;;10.95;5.03;;;27.90;73.30;;;;;;4992435;28;20062;-45
2023/05/31 12:29:56;;;;;;;14.07;5.75;;;27.80;72.70;;;;;;4992402;28;20054;-43
2023/05/31 12:32:27;;;;;;;11.50;5.88;;;27.70;73.60;;;;;;4983119;28;20050;-45
2023/05/31 12:34:54;;;;;;;9.02;5.60;;;27.70;72.10;;;;;;4981199;28;20073;-44
2023/05/31 12:37:23;;;;;;;14.50;5.45;;;27.70;71.80;;;;;;4971847;28;20082;-45
2023/05/31 12:39:49;;;;;;;8.70;5.18;;;27.40;71.60;;;;;;4973427;28;20510;-45
2023/05/31 12:42:16;;;;;;;11.23;5.40;;;27.50;72.40;;;;;;4977816;28;20042;-44
2023/05/31 12:44:43;;;;;;;9.07;4.88;;;27.60;71.70;;;;;;4989640;28;20117;-44